Time,TemperatureF,DewpointF,PressureIn,WindDirection,WindDirectionDegrees,WindSpeedMPH,WindSpeedGustMPH,Humidity,HourlyPrecipIn,Conditions,Clouds,dailyrainin,SolarRadiationWatts/m^2,SoftwareType,DateUTC
2013-09-13 00:00:00,72.0,66.9,29.72,West,269,0.0,0.0,84,0.00,,,0.00,0,Wunderground v.1.15,2013-09-13 04:00:00,
2013-09-13 00:10:00,71.5,66.4,29.72,West,269,0.0,0.0,84,0.00,,,0.00,0,Wunderground v.1.15,2013-09-13 04:10:00,
2013-09-13 00:20:00,71.1,66.4,29.72,West,269,0.0,0.0,85,0.00,,,0.00,0,Wunderground v.1.15,2013-09-13 04:20:00,
2013-09-13 00:30:00,70.0,65.6,29.71,West,269,0.0,0.0,86,0.00,,,0.00,0,Wunderground v.1.15,2013-09-13 04:30:00,
2013-09-13 00:40:00,68.8,65.1,29.71,West,269,0.0,0.0,88,0.00,,,0.00,0,Wunderground v.1.15,2013-09-13 04:40:00,
2013-09-13 00:50:00,68.9,65.5,29.71,West,269,0.0,0.0,89,0.00,,,0.00,0,Wunderground v.1.15,2013-09-13 04:50:00,
2013-09-13 01:00:00,68.8,65.4,29.71,West,269,0.0,0.0,89,0.00,,,0.00,0,Wunderground v.1.15,2013-09-13 05:00:00,
2013-09-13 01:10:00,68.4,65.0,29.71,West,269,0.0,0.0,89,0.00,,,0.00,0,Wunderground v.1.15,2013-09-13 05:10:00,
2013-09-13 01:20:00,67.7,64.3,29.71,West,269,0.0,0.0,89,0.00,,,0.00,0,Wunderground v.1.15,2013-09-13 05:20:00,
2013-09-13 01:30:00,67.1,64.1,29.71,West,269,0.0,0.0,90,0.00,,,0.00,0,Wunderground v.1.15,2013-09-13 05:30:00,
2013-09-13 01:40:00,67.0,64.3,29.71,West,269,0.0,0.0,91,0.00,,,0.00,0,Wunderground v.1.15,2013-09-13 05:40:00,
2013-09-13 01:50:00,67.1,64.4,29.71,West,269,0.0,0.0,91,0.00,,,0.00,0,Wunderground v.1.15,2013-09-13 05:50:00,
2013-09-13 02:00:00,67.8,65.1,29.70,West,269,0.0,0.0,91,0.00,,,0.00,0,Wunderground v.1.15,2013-09-13 06:00:00,
2013-09-13 02:10:00,68.6,65.2,29.70,West,269,0.0,0.0,89,0.00,,,0.00,0,Wunderground v.1.15,2013-09-13 06:10:00,
2013-09-13 02:20:00,69.0,65.0,29.70,West,269,0.0,0.0,87,0.00,,,0.00,0,Wunderground v.1.15,2013-09-13 06:20:00,
2013-09-13 02:30:00,68.9,64.9,29.69,West,269,0.0,0.0,87,0.00,,,0.00,0,Wunderground v.1.15,2013-09-13 06:30:00,
2013-09-13 02:40:00,68.4,64.4,29.69,West,269,0.0,0.0,87,0.00,,,0.00,0,Wunderground v.1.15,2013-09-13 06:40:00,
2013-09-13 02:50:00,67.5,64.1,29.70,North,355,0.0,0.0,89,0.00,,,0.00,0,Wunderground v.1.15,2013-09-13 06:50:00,
2013-09-13 03:00:00,67.8,64.1,29.70,NNW,347,2.0,2.0,88,0.00,,,0.00,0,Wunderground v.1.15,2013-09-13 07:00:00,
2013-09-13 03:10:00,68.3,63.3,29.70,NW,325,2.0,6.0,84,0.00,,,0.00,0,Wunderground v.1.15,2013-09-13 07:10:00,
2013-09-13 03:20:00,68.4,62.3,29.70,NNW,330,1.0,1.0,81,0.00,,,0.00,0,Wunderground v.1.15,2013-09-13 07:20:00,
2013-09-13 03:30:00,68.3,62.2,29.69,West,280,0.0,0.0,81,0.00,,,0.00,0,Wunderground v.1.15,2013-09-13 07:30:00,
2013-09-13 03:40:00,68.1,62.4,29.70,North,350,0.0,0.0,82,0.00,,,0.00,0,Wunderground v.1.15,2013-09-13 07:40:00,
2013-09-13 03:50:00,67.9,62.2,29.71,NNW,329,1.0,1.0,82,0.00,,,0.00,0,Wunderground v.1.15,2013-09-13 07:50:00,
2013-09-13 04:00:00,67.6,61.9,29.71,NW,309,1.0,1.0,82,0.00,,,0.00,0,Wunderground v.1.15,2013-09-13 08:00:00,
2013-09-13 04:10:00,67.4,62.1,29.71,North,11,1.0,1.0,83,0.00,,,0.00,0,Wunderground v.1.15,2013-09-13 08:10:00,
2013-09-13 04:20:00,67.1,61.8,29.71,NNW,328,0.0,0.0,83,0.00,,,0.00,0,Wunderground v.1.15,2013-09-13 08:20:00,
2013-09-13 04:30:00,67.0,61.3,29.71,NNW,348,2.0,2.0,82,0.00,,,0.00,0,Wunderground v.1.15,2013-09-13 08:30:00,
2013-09-13 04:40:00,66.9,60.9,29.71,NNW,337,1.0,1.0,81,0.00,,,0.00,0,Wunderground v.1.15,2013-09-13 08:40:00,
2013-09-13 04:50:00,66.8,61.1,29.72,NE,36,1.0,1.0,82,0.00,,,0.00,0,Wunderground v.1.15,2013-09-13 08:50:00,
2013-09-13 05:00:00,66.3,60.6,29.73,North,355,0.0,0.0,82,0.00,,,0.00,0,Wunderground v.1.15,2013-09-13 09:00:00,
2013-09-13 05:10:00,66.1,60.8,29.72,NNE,22,0.0,0.0,83,0.00,,,0.00,0,Wunderground v.1.15,2013-09-13 09:10:00,
2013-09-13 05:20:00,66.1,60.8,29.72,North,355,0.0,0.0,83,0.00,,,0.00,0,Wunderground v.1.15,2013-09-13 09:20:00,
2013-09-13 05:30:00,66.0,60.7,29.72,North,355,0.0,0.0,83,0.00,,,0.00,0,Wunderground v.1.15,2013-09-13 09:30:00,
2013-09-13 05:40:00,65.6,60.6,29.72,NW,324,0.0,0.0,84,0.00,,,0.00,0,Wunderground v.1.15,2013-09-13 09:40:00,
2013-09-13 05:50:00,65.1,60.5,29.72,NW,324,0.0,0.0,85,0.00,,,0.00,0,Wunderground v.1.15,2013-09-13 09:50:00,
2013-09-13 06:00:00,64.7,60.4,29.72,NW,324,0.0,0.0,86,0.00,,,0.00,0,Wunderground v.1.15,2013-09-13 10:00:00,
2013-09-13 06:10:00,64.8,60.8,29.73,NW,324,0.0,0.0,87,0.00,,,0.00,0,Wunderground v.1.15,2013-09-13 10:10:00,
2013-09-13 06:20:00,64.5,60.9,29.73,NW,324,0.0,0.0,88,0.00,,,0.00,0,Wunderground v.1.15,2013-09-13 10:20:00,
2013-09-13 06:30:00,64.2,60.9,29.72,NW,324,0.0,0.0,89,0.00,,,0.00,0,Wunderground v.1.15,2013-09-13 10:30:00,
2013-09-13 06:40:00,64.2,60.6,29.73,NW,324,0.0,0.0,88,0.00,,,0.00,0,Wunderground v.1.15,2013-09-13 10:40:00,
2013-09-13 06:50:00,64.3,61.0,29.73,NW,324,0.0,0.0,89,0.00,,,0.00,0,Wunderground v.1.15,2013-09-13 10:50:00,
2013-09-13 07:00:00,64.2,60.6,29.74,NW,324,0.0,0.0,88,0.00,,,0.00,0,Wunderground v.1.15,2013-09-13 11:00:00,
2013-09-13 07:10:00,64.4,60.8,29.74,NW,324,0.0,0.0,88,0.00,,,0.00,0,Wunderground v.1.15,2013-09-13 11:10:00,
2013-09-13 07:20:00,64.1,60.2,29.74,NW,324,0.0,0.0,87,0.00,,,0.00,7,Wunderground v.1.15,2013-09-13 11:20:00,
2013-09-13 07:30:00,64.4,60.8,29.75,NW,324,0.0,0.0,88,0.00,,,0.00,14,Wunderground v.1.15,2013-09-13 11:30:00,
2013-09-13 07:40:00,64.3,60.7,29.75,WNW,292,0.0,0.0,88,0.00,,,0.00,16,Wunderground v.1.15,2013-09-13 11:40:00,
2013-09-13 07:50:00,64.1,60.5,29.75,WNW,292,0.0,0.0,88,0.00,,,0.00,25,Wunderground v.1.15,2013-09-13 11:50:00,
2013-09-13 08:00:00,64.2,60.6,29.76,WNW,292,0.0,0.0,88,0.00,,,0.00,33,Wunderground v.1.15,2013-09-13 12:00:00,
2013-09-13 08:10:00,64.3,60.3,29.76,WNW,292,0.0,0.0,87,0.00,,,0.00,39,Wunderground v.1.15,2013-09-13 12:10:00,
2013-09-13 08:20:00,64.7,60.1,29.76,WNW,288,0.0,0.0,85,0.00,,,0.00,69,Wunderground v.1.15,2013-09-13 12:20:00,
2013-09-13 08:30:00,65.2,59.6,29.76,WNW,285,0.0,3.0,82,0.00,,,0.00,90,Wunderground v.1.15,2013-09-13 12:30:00,
2013-09-13 08:40:00,65.5,58.1,29.77,NNW,331,1.0,1.0,77,0.00,,,0.00,67,Wunderground v.1.15,2013-09-13 12:40:00,
2013-09-13 08:50:00,65.5,57.7,29.77,NNW,342,3.0,5.0,76,0.00,,,0.00,79,Wunderground v.1.15,2013-09-13 12:50:00,
2013-09-13 09:00:00,66.3,58.1,29.78,NNW,342,3.0,5.0,75,0.00,,,0.00,452,Wunderground v.1.15,2013-09-13 13:00:00,
2013-09-13 09:10:00,66.8,57.9,29.78,North,360,3.0,6.0,73,0.00,,,0.00,178,Wunderground v.1.15,2013-09-13 13:10:00,
2013-09-13 09:20:00,66.8,57.5,29.78,NNW,344,3.0,4.0,72,0.00,,,0.00,121,Wunderground v.1.15,2013-09-13 13:20:00,
2013-09-13 09:30:00,68.0,57.8,29.77,North,355,3.0,3.0,70,0.00,,,0.00,457,Wunderground v.1.15,2013-09-13 13:30:00,
2013-09-13 09:40:00,68.7,57.7,29.77,North,355,1.0,1.0,68,0.00,,,0.00,534,Wunderground v.1.15,2013-09-13 13:40:00,
2013-09-13 09:50:00,68.8,57.8,29.78,NNW,348,3.0,6.0,68,0.00,,,0.00,571,Wunderground v.1.15,2013-09-13 13:50:00,
2013-09-13 10:00:00,69.2,57.4,29.78,North,355,5.0,13.0,66,0.00,,,0.00,582,Wunderground v.1.15,2013-09-13 14:00:00,
2013-09-13 10:10:00,69.4,56.7,29.78,NNW,340,6.0,7.0,64,0.00,,,0.00,573,Wunderground v.1.15,2013-09-13 14:10:00,
2013-09-13 10:20:00,69.7,57.0,29.79,West,273,5.0,9.0,64,0.00,,,0.00,605,Wunderground v.1.15,2013-09-13 14:20:00,
2013-09-13 10:30:00,70.7,57.5,29.78,NW,321,2.0,3.0,63,0.00,,,0.00,745,Wunderground v.1.15,2013-09-13 14:30:00,
2013-09-13 10:40:00,71.6,58.3,29.79,NW,304,3.0,3.0,63,0.00,,,0.00,745,Wunderground v.1.15,2013-09-13 14:40:00,
2013-09-13 10:50:00,71.0,56.9,29.79,NW,318,3.0,3.0,61,0.00,,,0.00,705,Wunderground v.1.15,2013-09-13 14:50:00,
2013-09-13 11:00:00,71.3,57.2,29.78,NNW,338,4.0,4.0,61,0.00,,,0.00,707,Wunderground v.1.15,2013-09-13 15:00:00,
2013-09-13 11:10:00,71.9,56.3,29.79,North,355,5.0,5.0,58,0.00,,,0.00,728,Wunderground v.1.15,2013-09-13 15:10:00,
2013-09-13 11:20:00,72.2,57.1,29.79,NNW,346,3.0,6.0,59,0.00,,,0.00,768,Wunderground v.1.15,2013-09-13 15:20:00,
2013-09-13 11:30:00,72.7,56.6,29.79,NW,313,4.0,4.0,57,0.00,,,0.00,218,Wunderground v.1.15,2013-09-13 15:30:00,
2013-09-13 11:40:00,71.7,55.7,29.78,NNW,331,4.0,4.0,57,0.00,,,0.00,770,Wunderground v.1.15,2013-09-13 15:40:00,
2013-09-13 11:50:00,72.7,56.1,29.79,West,269,4.0,6.0,56,0.00,,,0.00,788,Wunderground v.1.15,2013-09-13 15:50:00,
2013-09-13 12:00:00,73.5,55.8,29.78,North,5,4.0,4.0,54,0.00,,,0.00,833,Wunderground v.1.15,2013-09-13 16:00:00,
2013-09-13 12:10:00,73.7,54.4,29.78,NW,317,4.0,7.0,51,0.00,,,0.00,926,Wunderground v.1.15,2013-09-13 16:10:00,
2013-09-13 12:20:00,72.7,54.6,29.78,NNW,348,4.0,4.0,53,0.00,,,0.00,914,Wunderground v.1.15,2013-09-13 16:20:00,
2013-09-13 12:30:00,73.6,53.8,29.78,NNW,347,3.0,4.0,50,0.00,,,0.00,190,Wunderground v.1.15,2013-09-13 16:30:00,
2013-09-13 12:40:00,73.3,55.1,29.78,NNW,333,4.0,4.0,53,0.00,,,0.00,301,Wunderground v.1.15,2013-09-13 16:40:00,
2013-09-13 12:50:00,74.0,53.6,29.77,NW,325,4.0,4.0,49,0.00,,,0.00,348,Wunderground v.1.15,2013-09-13 16:50:00,
2013-09-13 13:00:00,74.1,55.3,29.77,NNW,329,3.0,3.0,52,0.00,,,0.00,243,Wunderground v.1.15,2013-09-13 17:00:00,
2013-09-13 13:10:00,73.5,54.3,29.77,NNW,334,3.0,3.0,51,0.00,,,0.00,250,Wunderground v.1.15,2013-09-13 17:10:00,
2013-09-13 13:20:00,74.4,54.0,29.77,NW,310,4.0,4.0,49,0.00,,,0.00,192,Wunderground v.1.15,2013-09-13 17:20:00,
2013-09-13 13:30:00,74.5,54.1,29.77,NW,313,4.0,5.0,49,0.00,,,0.00,237,Wunderground v.1.15,2013-09-13 17:30:00,
2013-09-13 13:40:00,72.6,53.4,29.77,WNW,298,5.0,5.0,51,0.00,,,0.00,271,Wunderground v.1.15,2013-09-13 17:40:00,
2013-09-13 13:50:00,72.2,54.1,29.77,WNW,297,3.0,3.0,53,0.00,,,0.00,269,Wunderground v.1.15,2013-09-13 17:50:00,
2013-09-13 14:00:00,74.0,55.8,29.77,WNW,288,4.0,4.0,53,0.00,,,0.00,199,Wunderground v.1.15,2013-09-13 18:00:00,
2013-09-13 14:10:00,74.4,53.4,29.77,West,273,4.0,7.0,48,0.00,,,0.00,962,Wunderground v.1.15,2013-09-13 18:10:00,
2013-09-13 14:20:00,74.3,54.5,29.76,WNW,291,6.0,6.0,50,0.00,,,0.00,882,Wunderground v.1.15,2013-09-13 18:20:00,
2013-09-13 14:30:00,74.9,53.3,29.76,WNW,291,3.0,3.0,47,0.00,,,0.00,884,Wunderground v.1.15,2013-09-13 18:30:00,
2013-09-13 14:40:00,74.4,53.4,29.77,WNW,285,4.0,4.0,48,0.00,,,0.00,853,Wunderground v.1.15,2013-09-13 18:40:00,
2013-09-13 14:50:00,74.3,54.5,29.77,West,269,3.0,4.0,50,0.00,,,0.00,888,Wunderground v.1.15,2013-09-13 18:50:00,
2013-09-13 15:00:00,73.3,53.5,29.77,NW,306,2.0,3.0,50,0.00,,,0.00,135,Wunderground v.1.15,2013-09-13 19:00:00,
2013-09-13 15:10:00,72.5,53.9,29.77,West,269,1.0,2.0,52,0.00,,,0.00,167,Wunderground v.1.15,2013-09-13 19:10:00,
2013-09-13 15:20:00,74.3,55.0,29.76,West,279,2.0,3.0,51,0.00,,,0.00,795,Wunderground v.1.15,2013-09-13 19:20:00,
2013-09-13 15:30:00,75.5,55.0,29.76,WSW,258,3.0,3.0,49,0.00,,,0.00,680,Wunderground v.1.15,2013-09-13 19:30:00,
2013-09-13 15:40:00,75.6,55.6,29.76,West,267,4.0,4.0,50,0.00,,,0.00,680,Wunderground v.1.15,2013-09-13 19:40:00,
2013-09-13 15:50:00,76.5,55.9,29.76,West,265,2.0,3.0,49,0.00,,,0.00,698,Wunderground v.1.15,2013-09-13 19:50:00,
2013-09-13 16:00:00,75.8,55.3,29.77,NW,324,4.0,4.0,49,0.00,,,0.00,223,Wunderground v.1.15,2013-09-13 20:00:00,
2013-09-13 16:10:00,70.2,57.0,29.77,NW,317,6.0,6.0,63,0.00,,,0.00,670,Wunderground v.1.15,2013-09-13 20:10:00,
2013-09-13 16:20:00,69.4,57.1,29.78,North,350,5.0,5.0,65,0.00,,,0.00,176,Wunderground v.1.15,2013-09-13 20:20:00,
2013-09-13 16:30:00,68.4,55.3,29.79,NW,311,5.0,5.0,63,0.00,,,0.00,95,Wunderground v.1.15,2013-09-13 20:30:00,
2013-09-13 16:40:00,67.9,55.7,29.79,NW,306,5.0,5.0,65,0.00,,,0.00,130,Wunderground v.1.15,2013-09-13 20:40:00,
2013-09-13 16:50:00,67.6,55.8,29.79,NW,320,5.0,5.0,66,0.00,,,0.00,109,Wunderground v.1.15,2013-09-13 20:50:00,
2013-09-13 17:00:00,66.7,56.2,29.79,NW,307,4.0,4.0,69,0.00,,,0.00,111,Wunderground v.1.15,2013-09-13 21:00:00,
2013-09-13 17:10:00,66.1,56.0,29.80,NW,313,2.0,3.0,70,0.00,,,0.00,160,Wunderground v.1.15,2013-09-13 21:10:00,
2013-09-13 17:20:00,66.5,56.4,29.79,NW,311,4.0,4.0,70,0.00,,,0.00,167,Wunderground v.1.15,2013-09-13 21:20:00,
2013-09-13 17:30:00,66.5,56.4,29.78,NNW,336,4.0,4.0,70,0.00,,,0.00,69,Wunderground v.1.15,2013-09-13 21:30:00,
2013-09-13 17:40:00,66.3,55.4,29.79,NNW,344,5.0,5.0,68,0.00,,,0.00,322,Wunderground v.1.15,2013-09-13 21:40:00,
2013-09-13 17:50:00,67.5,54.9,29.79,NW,325,5.0,9.0,64,0.00,,,0.00,265,Wunderground v.1.15,2013-09-13 21:50:00,
2013-09-13 18:00:00,67.7,54.6,29.79,North,360,4.0,11.0,63,0.00,,,0.00,148,Wunderground v.1.15,2013-09-13 22:00:00,
2013-09-13 18:10:00,67.1,54.1,29.81,NNW,336,6.0,6.0,63,0.00,,,0.00,35,Wunderground v.1.15,2013-09-13 22:10:00,
2013-09-13 18:20:00,66.6,54.5,29.81,NW,320,5.0,7.0,65,0.00,,,0.00,28,Wunderground v.1.15,2013-09-13 22:20:00,
2013-09-13 18:30:00,65.8,54.5,29.81,NNW,344,5.0,5.0,67,0.00,,,0.00,25,Wunderground v.1.15,2013-09-13 22:30:00,
2013-09-13 18:40:00,64.9,54.5,29.82,North,350,3.0,3.0,69,0.00,,,0.00,18,Wunderground v.1.15,2013-09-13 22:40:00,
2013-09-13 18:50:00,64.5,54.5,29.83,NNW,348,2.0,2.0,70,0.00,,,0.00,14,Wunderground v.1.15,2013-09-13 22:50:00,
2013-09-13 19:00:00,64.0,54.0,29.83,North,5,1.0,1.0,70,0.00,,,0.00,11,Wunderground v.1.15,2013-09-13 23:00:00,
2013-09-13 19:10:00,63.2,54.0,29.83,NNE,15,1.0,1.0,72,0.00,,,0.00,7,Wunderground v.1.15,2013-09-13 23:10:00,
2013-09-13 19:20:00,62.8,54.0,29.84,North,360,0.0,0.0,73,0.00,,,0.00,0,Wunderground v.1.15,2013-09-13 23:20:00,
2013-09-13 19:30:00,62.6,53.4,29.84,NE,47,0.0,1.0,72,0.00,,,0.00,0,Wunderground v.1.15,2013-09-13 23:30:00,
2013-09-13 19:40:00,62.4,52.5,29.85,NNW,345,1.0,3.0,70,0.00,,,0.00,0,Wunderground v.1.15,2013-09-13 23:40:00,
2013-09-13 19:50:00,62.0,52.5,29.86,North,5,0.0,0.0,71,0.00,,,0.00,0,Wunderground v.1.15,2013-09-13 23:50:00,
2013-09-13 20:00:00,61.3,51.8,29.87,NNE,17,0.0,0.0,71,0.00,,,0.00,0,Wunderground v.1.15,2013-09-14 00:00:00,
2013-09-13 20:10:00,61.0,51.5,29.88,NE,53,0.0,0.0,71,0.00,,,0.00,0,Wunderground v.1.15,2013-09-14 00:10:00,
2013-09-13 20:20:00,60.1,51.0,29.88,East,80,0.0,2.0,72,0.00,,,0.00,0,Wunderground v.1.15,2013-09-14 00:20:00,
2013-09-13 20:30:00,59.9,51.2,29.88,East,90,0.0,0.0,73,0.00,,,0.00,0,Wunderground v.1.15,2013-09-14 00:30:00,
2013-09-13 20:40:00,59.7,51.0,29.88,North,355,0.0,0.0,73,0.00,,,0.00,0,Wunderground v.1.15,2013-09-14 00:40:00,
2013-09-13 20:50:00,59.8,51.1,29.88,WNW,288,0.0,0.0,73,0.00,,,0.00,0,Wunderground v.1.15,2013-09-14 00:50:00,
2013-09-13 21:00:00,59.9,50.8,29.89,WNW,283,0.0,0.0,72,0.00,,,0.00,0,Wunderground v.1.15,2013-09-14 01:00:00,
2013-09-13 21:10:00,59.6,50.9,29.90,WNW,283,0.0,0.0,73,0.00,,,0.00,0,Wunderground v.1.15,2013-09-14 01:10:00,
2013-09-13 21:30:00,58.1,50.9,29.91,North,5,0.0,0.0,77,0.00,,,0.00,0,Wunderground v.1.15,2013-09-14 01:30:00,
2013-09-13 21:40:00,58.7,51.2,29.91,North,5,0.0,0.0,76,0.00,,,0.00,0,Wunderground v.1.15,2013-09-14 01:40:00,
2013-09-13 21:50:00,58.7,51.2,29.91,North,5,0.0,0.0,76,0.00,,,0.00,0,Wunderground v.1.15,2013-09-14 01:50:00,
2013-09-13 22:00:00,57.1,50.6,29.92,North,5,0.0,0.0,79,0.00,,,0.00,0,Wunderground v.1.15,2013-09-14 02:00:00,
2013-09-13 22:10:00,57.0,50.9,29.92,North,5,0.0,0.0,80,0.00,,,0.00,0,Wunderground v.1.15,2013-09-14 02:10:00,
2013-09-13 22:20:00,56.5,50.7,29.92,North,5,0.0,0.0,81,0.00,,,0.00,0,Wunderground v.1.15,2013-09-14 02:20:00,
2013-09-13 22:30:00,56.1,51.0,29.93,North,5,0.0,0.0,83,0.00,,,0.00,0,Wunderground v.1.15,2013-09-14 02:30:00,
2013-09-13 22:40:00,57.1,51.7,29.93,North,5,0.0,0.0,82,0.00,,,0.00,0,Wunderground v.1.15,2013-09-14 02:40:00,
2013-09-13 22:50:00,57.9,51.8,29.93,North,5,0.0,0.0,80,0.00,,,0.00,0,Wunderground v.1.15,2013-09-14 02:50:00,
2013-09-13 23:00:00,58.0,51.5,29.93,NNW,346,0.0,0.0,79,0.00,,,0.00,0,Wunderground v.1.15,2013-09-14 03:00:00,
2013-09-13 23:10:00,57.7,51.2,29.93,NNW,346,0.0,3.0,79,0.00,,,0.00,0,Wunderground v.1.15,2013-09-14 03:10:00,
2013-09-13 23:20:00,57.6,50.8,29.93,NNW,345,1.0,1.0,78,0.00,,,0.00,0,Wunderground v.1.15,2013-09-14 03:20:00,
2013-09-13 23:30:00,57.4,49.9,29.93,NNW,339,1.0,1.0,76,0.00,,,0.00,0,Wunderground v.1.15,2013-09-14 03:30:00,
2013-09-13 23:40:00,57.4,49.5,29.93,NNW,331,2.0,4.0,75,0.00,,,0.00,0,Wunderground v.1.15,2013-09-14 03:40:00,
2013-09-13 23:50:00,57.3,48.7,29.93,NNW,331,3.0,3.0,73,0.00,,,0.00,0,Wunderground v.1.15,2013-09-14 03:50:00,